Terminal Aerodrome Forecast
Issued by NWS

Home | Current Version | Previous Version | Graphics & Text | Print | Product List | Glossary On
Versions: 1 2 3 4 5 6 7 8 9 10 11 12 13 14 15 16 17 18 19 20 21 22
000
FTUS43 KGRB 171143 CCA
TAFRHI
TAF COR
KRHI 171143Z 1712/1812 28011KT P6SM SCT005 OVC035
      TEMPO 1712/1713 2SM -SHRA BKN005
     FM171300 27010KT P6SM SCT008 BKN050
      TEMPO 1713/1714 BKN008
     FM171500 28008G15KT P6SM SCT020 SCT060
     FM180400 00000KT P6SM SCT090
      TEMPO 1808/1812 1SM BR=

USA.gov is the U.S. government's official web portal to all federal, state and local government web resources and services.